sensor_id;sensor_type;location;lat;lon;timestamp;pressure;altitude;pressure_sealevel;temperature;humidity
20825;BME280;10573;50.936;6.978;2023-01-19T00:02:21;99907.66;;;2.54;66.52
20825;BME280;10573;50.936;6.978;2023-01-19T00:04:47;99912.75;;;2.69;66.20
20825;BME280;10573;50.936;6.978;2023-01-19T00:07:12;99905.91;;;2.65;65.88
20825;BME280;10573;50.936;6.978;2023-01-19T00:09:37;99913.53;;;2.72;65.75
20825;BME280;10573;50.936;6.978;2023-01-19T00:12:10;99905.66;;;2.68;65.85
20825;BME280;10573;50.936;6.978;2023-01-19T00:14:36;99907.88;;;2.63;65.78
20825;BME280;10573;50.936;6.978;2023-01-19T00:17:01;99898.75;;;2.53;66.00
20825;BME280;10573;50.936;6.978;2023-01-19T00:19:27;99905.34;;;2.49;66.32
20825;BME280;10573;50.936;6.978;2023-01-19T00:21:53;99907.78;;;2.52;66.29
20825;BME280;10573;50.936;6.978;2023-01-19T00:24:19;99904.66;;;2.58;66.08
20825;BME280;10573;50.936;6.978;2023-01-19T00:26:44;99907.06;;;2.50;66.41
20825;BME280;10573;50.936;6.978;2023-01-19T00:29:10;99899.22;;;2.47;66.16
20825;BME280;10573;50.936;6.978;2023-01-19T00:31:36;99902.69;;;2.60;66.54
20825;BME280;10573;50.936;6.978;2023-01-19T00:34:03;99903.56;;;2.61;66.46
20825;BME280;10573;50.936;6.978;2023-01-19T00:36:29;99902.94;;;2.57;66.54
20825;BME280;10573;50.936;6.978;2023-01-19T00:38:55;99905.09;;;2.52;67.03
20825;BME280;10573;50.936;6.978;2023-01-19T00:41:20;99903.34;;;2.64;66.61
20825;BME280;10573;50.936;6.978;2023-01-19T00:44:09;99907.63;;;2.66;66.68
20825;BME280;10573;50.936;6.978;2023-01-19T00:46:35;99900.84;;;2.85;66.40
20825;BME280;10573;50.936;6.978;2023-01-19T00:49:01;99899.41;;;2.92;66.36
20825;BME280;10573;50.936;6.978;2023-01-19T00:51:26;99897.41;;;2.83;66.05
20825;BME280;10573;50.936;6.978;2023-01-19T00:53:51;99902.06;;;2.81;66.12
20825;BME280;10573;50.936;6.978;2023-01-19T00:56:17;99896.84;;;2.91;66.56
20825;BME280;10573;50.936;6.978;2023-01-19T00:58:42;99890.63;;;3.01;66.01
20825;BME280;10573;50.936;6.978;2023-01-19T01:01:09;99879.59;;;2.93;66.05
20825;BME280;10573;50.936;6.978;2023-01-19T01:03:34;99885.69;;;2.84;66.35
20825;BME280;10573;50.936;6.978;2023-01-19T01:06:00;99885.19;;;2.79;66.87
20825;BME280;10573;50.936;6.978;2023-01-19T01:08:25;99885.41;;;2.76;66.92
20825;BME280;10573;50.936;6.978;2023-01-19T01:10:51;99887.03;;;2.90;66.87
20825;BME280;10573;50.936;6.978;2023-01-19T01:13:16;99891.69;;;2.88;66.64
20825;BME280;10573;50.936;6.978;2023-01-19T01:15:42;99890.16;;;3.08;66.61
20825;BME280;10573;50.936;6.978;2023-01-19T01:18:08;99895.78;;;3.05;66.25
20825;BME280;10573;50.936;6.978;2023-01-19T01:20:34;99900.47;;;3.25;65.46
20825;BME280;10573;50.936;6.978;2023-01-19T01:23:01;99897.28;;;3.31;65.09
20825;BME280;10573;50.936;6.978;2023-01-19T01:25:27;99901.72;;;3.44;65.14
20825;BME280;10573;50.936;6.978;2023-01-19T01:27:55;99907.84;;;3.34;65.57
20825;BME280;10573;50.936;6.978;2023-01-19T01:30:20;99904.41;;;3.32;65.21
20825;BME280;10573;50.936;6.978;2023-01-19T01:32:45;99908.56;;;3.25;65.22
20825;BME280;10573;50.936;6.978;2023-01-19T01:35:12;99906.13;;;3.33;65.55
20825;BME280;10573;50.936;6.978;2023-01-19T01:37:37;99913.59;;;3.41;65.07
20825;BME280;10573;50.936;6.978;2023-01-19T01:40:04;99917.34;;;3.27;65.89
20825;BME280;10573;50.936;6.978;2023-01-19T01:42:32;99925.63;;;3.13;65.74
20825;BME280;10573;50.936;6.978;2023-01-19T01:45:00;99926.66;;;3.23;65.50
20825;BME280;10573;50.936;6.978;2023-01-19T01:47:30;99929.72;;;3.18;65.47
20825;BME280;10573;50.936;6.978;2023-01-19T01:50:05;99929.84;;;3.40;65.08
20825;BME280;10573;50.936;6.978;2023-01-19T01:52:34;99936.38;;;3.60;64.54
20825;BME280;10573;50.936;6.978;2023-01-19T01:55:03;99944.72;;;3.68;64.16
20825;BME280;10573;50.936;6.978;2023-01-19T01:57:33;99934.44;;;3.62;64.50
20825;BME280;10573;50.936;6.978;2023-01-19T02:00:00;99933.72;;;3.71;64.10
20825;BME280;10573;50.936;6.978;2023-01-19T02:02:28;99928.81;;;3.76;63.63
20825;BME280;10573;50.936;6.978;2023-01-19T02:05:33;99919.63;;;3.79;63.79
20825;BME280;10573;50.936;6.978;2023-01-19T02:10:50;99915.56;;;3.73;63.81
20825;BME280;10573;50.936;6.978;2023-01-19T02:13:39;99913.84;;;3.49;64.05
20825;BME280;10573;50.936;6.978;2023-01-19T02:16:08;99923.53;;;3.63;64.33
20825;BME280;10573;50.936;6.978;2023-01-19T02:18:35;99917.03;;;3.66;63.70
20825;BME280;10573;50.936;6.978;2023-01-19T02:21:18;99914.22;;;3.67;63.97
20825;BME280;10573;50.936;6.978;2023-01-19T02:23:48;99911.91;;;3.63;63.54
20825;BME280;10573;50.936;6.978;2023-01-19T02:26:18;99921.34;;;3.68;63.23
20825;BME280;10573;50.936;6.978;2023-01-19T02:28:51;99908.59;;;3.59;63.77
20825;BME280;10573;50.936;6.978;2023-01-19T02:31:18;99910.28;;;3.49;63.91
20825;BME280;10573;50.936;6.978;2023-01-19T02:33:44;99908.22;;;3.64;63.45
20825;BME280;10573;50.936;6.978;2023-01-19T02:36:11;99910.06;;;3.63;63.51
20825;BME280;10573;50.936;6.978;2023-01-19T02:38:40;99908.72;;;3.58;63.89
20825;BME280;10573;50.936;6.978;2023-01-19T02:41:08;99914.94;;;3.58;63.75
20825;BME280;10573;50.936;6.978;2023-01-19T02:43:37;99921.09;;;3.60;63.40
20825;BME280;10573;50.936;6.978;2023-01-19T02:46:03;99907.00;;;3.57;63.38
20825;BME280;10573;50.936;6.978;2023-01-19T02:48:29;99916.78;;;3.69;63.53
20825;BME280;10573;50.936;6.978;2023-01-19T02:50:59;99906.53;;;3.63;63.93
20825;BME280;10573;50.936;6.978;2023-01-19T02:53:34;99902.97;;;3.74;63.30
20825;BME280;10573;50.936;6.978;2023-01-19T02:59:09;99908.59;;;3.70;63.29
20825;BME280;10573;50.936;6.978;2023-01-19T03:07:13;99914.72;;;3.73;63.05
20825;BME280;10573;50.936;6.978;2023-01-19T03:10:06;99915.19;;;3.89;62.67
20825;BME280;10573;50.936;6.978;2023-01-19T03:12:53;99911.28;;;3.93;62.67
20825;BME280;10573;50.936;6.978;2023-01-19T03:17:56;99919.34;;;3.70;62.67
20825;BME280;10573;50.936;6.978;2023-01-19T03:20:24;99924.91;;;3.80;62.46
20825;BME280;10573;50.936;6.978;2023-01-19T03:23:00;99919.34;;;3.70;63.07
20825;BME280;10573;50.936;6.978;2023-01-19T03:25:32;99918.16;;;3.75;62.84
20825;BME280;10573;50.936;6.978;2023-01-19T03:28:00;99922.19;;;3.69;62.99
20825;BME280;10573;50.936;6.978;2023-01-19T03:30:34;99913.97;;;3.70;63.01
20825;BME280;10573;50.936;6.978;2023-01-19T03:33:06;99915.47;;;3.75;62.63
20825;BME280;10573;50.936;6.978;2023-01-19T03:35:36;99913.25;;;3.68;62.88
20825;BME280;10573;50.936;6.978;2023-01-19T03:38:06;99907.13;;;3.66;62.59
20825;BME280;10573;50.936;6.978;2023-01-19T03:40:35;99912.25;;;3.47;63.19
20825;BME280;10573;50.936;6.978;2023-01-19T03:43:02;99919.13;;;3.51;63.28
20825;BME280;10573;50.936;6.978;2023-01-19T03:45:30;99914.94;;;3.58;62.67
20825;BME280;10573;50.936;6.978;2023-01-19T03:47:57;99910.78;;;3.54;62.91
20825;BME280;10573;50.936;6.978;2023-01-19T03:50:26;99920.38;;;3.69;62.79
20825;BME280;10573;50.936;6.978;2023-01-19T03:53:13;99918.53;;;3.81;62.75
20825;BME280;10573;50.936;6.978;2023-01-19T03:55:41;99920.34;;;3.81;62.58
20825;BME280;10573;50.936;6.978;2023-01-19T03:58:07;99926.38;;;3.84;62.33
20825;BME280;10573;50.936;6.978;2023-01-19T04:00:33;99919.00;;;3.98;62.20
20825;BME280;10573;50.936;6.978;2023-01-19T04:03:01;99917.78;;;4.02;61.87
20825;BME280;10573;50.936;6.978;2023-01-19T04:05:27;99914.97;;;3.92;62.15
20825;BME280;10573;50.936;6.978;2023-01-19T04:07:53;99918.88;;;3.88;62.01
20825;BME280;10573;50.936;6.978;2023-01-19T04:10:20;99926.38;;;3.84;62.33
20825;BME280;10573;50.936;6.978;2023-01-19T04:12:46;99916.44;;;3.85;62.24
20825;BME280;10573;50.936;6.978;2023-01-19T04:15:13;99917.19;;;3.87;61.95
20825;BME280;10573;50.936;6.978;2023-01-19T04:17:39;99914.13;;;3.80;62.29
20825;BME280;10573;50.936;6.978;2023-01-19T04:20:05;99917.16;;;3.98;62.36
20825;BME280;10573;50.936;6.978;2023-01-19T04:22:31;99909.81;;;4.12;61.87
20825;BME280;10573;50.936;6.978;2023-01-19T04:24:57;99913.25;;;3.80;61.87
20825;BME280;10573;50.936;6.978;2023-01-19T04:27:23;99908.34;;;3.85;62.01
20825;BME280;10573;50.936;6.978;2023-01-19T04:29:50;99909.72;;;3.68;62.16
20825;BME280;10573;50.936;6.978;2023-01-19T04:32:16;99907.75;;;3.81;62.46
20825;BME280;10573;50.936;6.978;2023-01-19T04:34:42;99902.47;;;3.80;62.35
20825;BME280;10573;50.936;6.978;2023-01-19T04:37:07;99908.81;;;4.01;61.77
20825;BME280;10573;50.936;6.978;2023-01-19T04:39:33;99910.31;;;3.94;61.81
20825;BME280;10573;50.936;6.978;2023-01-19T04:41:59;99914.22;;;4.13;61.74
20825;BME280;10573;50.936;6.978;2023-01-19T04:44:25;99914.34;;;4.00;61.71
20825;BME280;10573;50.936;6.978;2023-01-19T04:46:51;99918.63;;;4.02;61.38
20825;BME280;10573;50.936;6.978;2023-01-19T04:49:17;99915.94;;;4.14;61.16
20825;BME280;10573;50.936;6.978;2023-01-19T04:51:42;99917.63;;;4.15;60.80
20825;BME280;10573;50.936;6.978;2023-01-19T04:54:08;99921.06;;;4.17;61.09
20825;BME280;10573;50.936;6.978;2023-01-19T04:56:34;99924.88;;;4.14;60.97
20825;BME280;10573;50.936;6.978;2023-01-19T04:58:59;99918.59;;;4.25;60.63
20825;BME280;10573;50.936;6.978;2023-01-19T05:01:25;99925.19;;;4.32;60.42
20825;BME280;10573;50.936;6.978;2023-01-19T05:03:51;99913.47;;;4.22;60.83
20825;BME280;10573;50.936;6.978;2023-01-19T05:06:16;99924.75;;;4.27;60.48
20825;BME280;10573;50.936;6.978;2023-01-19T05:08:45;99928.63;;;4.34;61.04
20825;BME280;10573;50.936;6.978;2023-01-19T05:11:10;99919.59;;;4.13;61.70
20825;BME280;10573;50.936;6.978;2023-01-19T05:13:36;99920.81;;;4.20;61.44
20825;BME280;10573;50.936;6.978;2023-01-19T05:16:01;99919.47;;;4.14;61.63
20825;BME280;10573;50.936;6.978;2023-01-19T05:18:27;99929.25;;;4.38;61.40
20825;BME280;10573;50.936;6.978;2023-01-19T05:20:54;99920.78;;;4.43;61.62
20825;BME280;10573;50.936;6.978;2023-01-19T05:23:22;99925.66;;;4.49;60.82
20825;BME280;10573;50.936;6.978;2023-01-19T05:25:48;99928.91;;;4.31;60.82
20825;BME280;10573;50.936;6.978;2023-01-19T05:28:13;99936.72;;;4.34;61.09
20825;BME280;10573;50.936;6.978;2023-01-19T05:30:40;99924.78;;;4.48;61.04
20825;BME280;10573;50.936;6.978;2023-01-19T05:33:06;99935.75;;;4.35;61.79
20825;BME280;10573;50.936;6.978;2023-01-19T05:35:31;99941.31;;;4.55;61.76
20825;BME280;10573;50.936;6.978;2023-01-19T05:37:57;99939.03;;;4.50;62.17
20825;BME280;10573;50.936;6.978;2023-01-19T05:40:22;99943.09;;;4.33;63.25
20825;BME280;10573;50.936;6.978;2023-01-19T05:42:48;99942.09;;;4.46;64.22
20825;BME280;10573;50.936;6.978;2023-01-19T05:45:13;99946.28;;;4.39;64.56
20825;BME280;10573;50.936;6.978;2023-01-19T05:47:39;99949.22;;;4.24;65.88
20825;BME280;10573;50.936;6.978;2023-01-19T05:50:05;99946.06;;;4.19;66.30
20825;BME280;10573;50.936;6.978;2023-01-19T05:52:30;99947.78;;;3.97;67.19
20825;BME280;10573;50.936;6.978;2023-01-19T05:54:56;99959.28;;;3.88;68.07
20825;BME280;10573;50.936;6.978;2023-01-19T05:57:22;99956.22;;;3.59;69.82
20825;BME280;10573;50.936;6.978;2023-01-19T05:59:47;99955.50;;;3.79;69.46
20825;BME280;10573;50.936;6.978;2023-01-19T06:02:13;99956.25;;;3.81;70.10
20825;BME280;10573;50.936;6.978;2023-01-19T06:04:38;99953.19;;;3.86;70.54
20825;BME280;10573;50.936;6.978;2023-01-19T06:07:05;99948.50;;;3.54;71.69
20825;BME280;10573;50.936;6.978;2023-01-19T06:09:33;99945.03;;;3.41;72.04
20825;BME280;10573;50.936;6.978;2023-01-19T06:11:59;99951.13;;;3.31;72.74
20825;BME280;10573;50.936;6.978;2023-01-19T06:14:25;99950.03;;;3.34;73.01
20825;BME280;10573;50.936;6.978;2023-01-19T06:16:50;99953.03;;;3.07;73.37
20825;BME280;10573;50.936;6.978;2023-01-19T06:19:16;99949.63;;;3.16;73.79
20825;BME280;10573;50.936;6.978;2023-01-19T06:21:41;99952.34;;;3.27;73.87
20825;BME280;10573;50.936;6.978;2023-01-19T06:24:13;99956.38;;;3.22;73.90
20825;BME280;10573;50.936;6.978;2023-01-19T06:26:39;99947.47;;;3.32;73.88
20825;BME280;10573;50.936;6.978;2023-01-19T06:29:04;99958.69;;;3.26;74.14
20825;BME280;10573;50.936;6.978;2023-01-19T06:31:30;99968.22;;;3.19;74.39
20825;BME280;10573;50.936;6.978;2023-01-19T06:33:55;99964.63;;;3.43;73.95
20825;BME280;10573;50.936;6.978;2023-01-19T06:36:21;99964.97;;;3.27;74.01
20825;BME280;10573;50.936;6.978;2023-01-19T06:38:46;99961.63;;;3.12;74.50
20825;BME280;10573;50.936;6.978;2023-01-19T06:41:12;99978.84;;;3.09;75.12
20825;BME280;10573;50.936;6.978;2023-01-19T06:43:37;99980.19;;;3.04;75.08
20825;BME280;10573;50.936;6.978;2023-01-19T06:46:03;99978.09;;;3.07;74.97
20825;BME280;10573;50.936;6.978;2023-01-19T06:48:28;99977.78;;;2.88;75.79
20825;BME280;10573;50.936;6.978;2023-01-19T06:50:54;99983.97;;;2.77;76.09
20825;BME280;10573;50.936;6.978;2023-01-19T06:53:19;99988.47;;;2.76;76.58
20825;BME280;10573;50.936;6.978;2023-01-19T06:55:46;99980.22;;;2.66;76.74
20825;BME280;10573;50.936;6.978;2023-01-19T06:58:11;99982.75;;;2.81;76.72
20825;BME280;10573;50.936;6.978;2023-01-19T07:00:37;99995.44;;;2.79;76.76
20825;BME280;10573;50.936;6.978;2023-01-19T07:03:06;100000.31;;;2.74;77.12
20825;BME280;10573;50.936;6.978;2023-01-19T07:05:34;99994.81;;;2.75;77.11
20825;BME280;10573;50.936;6.978;2023-01-19T07:08:00;100005.09;;;2.57;77.35
20825;BME280;10573;50.936;6.978;2023-01-19T07:10:25;100010.78;;;2.90;77.10
20825;BME280;10573;50.936;6.978;2023-01-19T07:12:51;100015.09;;;2.92;77.06
20825;BME280;10573;50.936;6.978;2023-01-19T07:15:17;100014.97;;;2.94;76.68
20825;BME280;10573;50.936;6.978;2023-01-19T07:17:44;100020.63;;;2.78;77.04
20825;BME280;10573;50.936;6.978;2023-01-19T07:20:11;100019.13;;;2.74;77.43
20825;BME280;10573;50.936;6.978;2023-01-19T07:22:39;100020.97;;;2.73;77.19
20825;BME280;10573;50.936;6.978;2023-01-19T07:25:05;100030.53;;;2.77;77.45
20825;BME280;10573;50.936;6.978;2023-01-19T07:27:31;100029.38;;;2.93;77.32
20825;BME280;10573;50.936;6.978;2023-01-19T07:29:56;100025.44;;;2.85;77.10
20825;BME280;10573;50.936;6.978;2023-01-19T07:32:22;100032.97;;;2.80;77.33
20825;BME280;10573;50.936;6.978;2023-01-19T07:34:47;100030.19;;;2.82;77.17
20825;BME280;10573;50.936;6.978;2023-01-19T07:37:13;100037.41;;;3.06;77.12
20825;BME280;10573;50.936;6.978;2023-01-19T07:39:38;100035.56;;;2.82;77.58
20825;BME280;10573;50.936;6.978;2023-01-19T07:42:03;100043.44;;;3.09;77.02
20825;BME280;10573;50.936;6.978;2023-01-19T07:44:29;100047.59;;;2.89;76.71
20825;BME280;10573;50.936;6.978;2023-01-19T07:46:54;100044.16;;;2.87;77.29
20825;BME280;10573;50.936;6.978;2023-01-19T07:49:19;100044.91;;;2.89;77.02
20825;BME280;10573;50.936;6.978;2023-01-19T07:51:45;100047.03;;;2.73;77.38
20825;BME280;10573;50.936;6.978;2023-01-19T07:54:11;100046.50;;;2.67;77.67
20825;BME280;10573;50.936;6.978;2023-01-19T07:56:36;100048.56;;;2.88;77.47
20825;BME280;10573;50.936;6.978;2023-01-19T07:59:01;100053.78;;;3.02;77.39
20825;BME280;10573;50.936;6.978;2023-01-19T08:01:27;100050.16;;;2.91;77.04
20825;BME280;10573;50.936;6.978;2023-01-19T08:03:53;100054.53;;;3.05;76.99
20825;BME280;10573;50.936;6.978;2023-01-19T08:06:21;100059.16;;;3.02;76.72
20825;BME280;10573;50.936;6.978;2023-01-19T08:08:47;100060.38;;;3.23;76.75
20825;BME280;10573;50.936;6.978;2023-01-19T08:11:12;100072.06;;;3.10;76.58
20825;BME280;10573;50.936;6.978;2023-01-19T08:13:38;100066.38;;;3.26;76.28
20825;BME280;10573;50.936;6.978;2023-01-19T08:16:03;100059.97;;;3.16;76.71
20825;BME280;10573;50.936;6.978;2023-01-19T08:18:29;100073.56;;;3.50;76.24
20825;BME280;10573;50.936;6.978;2023-01-19T08:20:57;100078.44;;;3.45;75.88
20825;BME280;10573;50.936;6.978;2023-01-19T08:23:22;100074.66;;;3.47;75.91
20825;BME280;10573;50.936;6.978;2023-01-19T08:25:48;100076.25;;;3.39;75.49
20825;BME280;10573;50.936;6.978;2023-01-19T08:28:14;100079.72;;;3.28;75.94
20825;BME280;10573;50.936;6.978;2023-01-19T08:30:41;100087.56;;;3.55;75.34
20825;BME280;10573;50.936;6.978;2023-01-19T08:33:08;100090.06;;;3.69;75.32
20825;BME280;10573;50.936;6.978;2023-01-19T08:35:42;100097.88;;;3.61;75.06
20825;BME280;10573;50.936;6.978;2023-01-19T08:38:08;100095.81;;;3.41;75.22
20825;BME280;10573;50.936;6.978;2023-01-19T08:40:37;100110.59;;;3.70;74.86
20825;BME280;10573;50.936;6.978;2023-01-19T08:43:06;100117.44;;;3.63;75.19
20825;BME280;10573;50.936;6.978;2023-01-19T08:45:33;100123.47;;;3.67;75.02
20825;BME280;10573;50.936;6.978;2023-01-19T08:47:59;100118.66;;;3.59;75.08
20825;BME280;10573;50.936;6.978;2023-01-19T08:50:28;100121.78;;;3.77;74.44
20825;BME280;10573;50.936;6.978;2023-01-19T08:52:58;100120.94;;;3.77;74.49
20825;BME280;10573;50.936;6.978;2023-01-19T08:55:24;100123.06;;;3.96;74.04
20825;BME280;10573;50.936;6.978;2023-01-19T08:57:54;100124.00;;;3.83;73.70
20825;BME280;10573;50.936;6.978;2023-01-19T09:00:24;100131.47;;;3.80;74.17
20825;BME280;10573;50.936;6.978;2023-01-19T09:02:51;100129.34;;;3.96;74.31
20825;BME280;10573;50.936;6.978;2023-01-19T09:05:17;100133.00;;;4.07;74.02
20825;BME280;10573;50.936;6.978;2023-01-19T09:07:43;100139.28;;;4.07;72.98
20825;BME280;10573;50.936;6.978;2023-01-19T09:10:10;100140.72;;;4.00;73.26
20825;BME280;10573;50.936;6.978;2023-01-19T09:12:36;100140.56;;;3.90;73.38
20825;BME280;10573;50.936;6.978;2023-01-19T09:15:02;100141.81;;;3.97;73.87
20825;BME280;10573;50.936;6.978;2023-01-19T09:17:27;100144.03;;;3.92;73.29
20825;BME280;10573;50.936;6.978;2023-01-19T09:19:52;100149.19;;;4.07;73.65
20825;BME280;10573;50.936;6.978;2023-01-19T09:22:18;100143.34;;;4.13;73.47
20825;BME280;10573;50.936;6.978;2023-01-19T09:24:43;100150.22;;;4.28;73.22
20825;BME280;10573;50.936;6.978;2023-01-19T09:27:09;100146.28;;;4.32;72.83
20825;BME280;10573;50.936;6.978;2023-01-19T09:29:34;100152.66;;;4.20;73.34
20825;BME280;10573;50.936;6.978;2023-01-19T09:32:00;100146.06;;;4.35;72.70
20825;BME280;10573;50.936;6.978;2023-01-19T09:34:26;100148.78;;;4.47;72.17
20825;BME280;10573;50.936;6.978;2023-01-19T09:36:51;100148.78;;;4.47;72.44
20825;BME280;10573;50.936;6.978;2023-01-19T09:39:17;100157.97;;;4.67;71.84
20825;BME280;10573;50.936;6.978;2023-01-19T09:41:48;100153.44;;;4.45;72.01
20825;BME280;10573;50.936;6.978;2023-01-19T09:44:19;100163.47;;;4.43;71.33
20825;BME280;10573;50.936;6.978;2023-01-19T09:46:47;100159.44;;;4.48;71.56
20825;BME280;10573;50.936;6.978;2023-01-19T09:49:22;100155.78;;;4.61;71.46
20825;BME280;10573;50.936;6.978;2023-01-19T09:51:50;100160.19;;;4.50;72.33
20825;BME280;10573;50.936;6.978;2023-01-19T09:54:18;100167.56;;;4.60;70.96
20825;BME280;10573;50.936;6.978;2023-01-19T09:56:46;100173.69;;;4.84;70.46
20825;BME280;10573;50.936;6.978;2023-01-19T10:01:54;100174.56;;;4.62;71.05
20825;BME280;10573;50.936;6.978;2023-01-19T10:04:27;100177.25;;;4.62;71.23
20825;BME280;10573;50.936;6.978;2023-01-19T10:07:47;100180.41;;;4.56;71.63
20825;BME280;10573;50.936;6.978;2023-01-19T10:09:54;100192.41;;;4.41;72.14
20825;BME280;10573;50.936;6.978;2023-01-19T10:12:34;100184.50;;;4.15;73.17
20825;BME280;10573;50.936;6.978;2023-01-19T10:20:36;100195.09;;;3.94;74.19
20825;BME280;10573;50.936;6.978;2023-01-19T10:23:16;100188.03;;;3.80;74.86
20825;BME280;10573;50.936;6.978;2023-01-19T10:25:44;100181.84;;;3.66;75.05
20825;BME280;10573;50.936;6.978;2023-01-19T10:28:12;100197.94;;;3.68;75.42
20825;BME280;10573;50.936;6.978;2023-01-19T10:30:41;100191.63;;;3.56;75.15
20825;BME280;10573;50.936;6.978;2023-01-19T10:33:09;100192.63;;;3.66;75.51
20825;BME280;10573;50.936;6.978;2023-01-19T10:35:35;100194.19;;;3.58;75.46
20825;BME280;10573;50.936;6.978;2023-01-19T10:38:01;100193.38;;;3.68;75.21
20825;BME280;10573;50.936;6.978;2023-01-19T10:40:40;100192.22;;;3.84;75.30
20825;BME280;10573;50.936;6.978;2023-01-19T10:46:00;100191.66;;;3.92;75.21
20825;BME280;10573;50.936;6.978;2023-01-19T10:48:26;100200.06;;;4.11;74.47
20825;BME280;10573;50.936;6.978;2023-01-19T10:51:01;100194.94;;;4.19;74.44
20825;BME280;10573;50.936;6.978;2023-01-19T10:53:27;100196.81;;;4.30;73.92
20825;BME280;10573;50.936;6.978;2023-01-19T10:56:20;100196.47;;;4.46;74.12
20825;BME280;10573;50.936;6.978;2023-01-19T10:58:46;100198.91;;;4.49;73.51
20825;BME280;10573;50.936;6.978;2023-01-19T11:01:23;100199.09;;;4.70;72.63
20825;BME280;10573;50.936;6.978;2023-01-19T11:03:50;100197.94;;;4.62;72.29
20825;BME280;10573;50.936;6.978;2023-01-19T11:06:26;100206.44;;;4.68;72.45
20825;BME280;10573;50.936;6.978;2023-01-19T11:08:53;100202.88;;;4.57;73.18
20825;BME280;10573;50.936;6.978;2023-01-19T11:11:41;100200.56;;;4.63;72.90
20825;BME280;10573;50.936;6.978;2023-01-19T11:14:11;100203.97;;;4.99;72.34
20825;BME280;10573;50.936;6.978;2023-01-19T11:16:37;100208.91;;;5.06;71.86
20825;BME280;10573;50.936;6.978;2023-01-19T11:19:05;100188.78;;;5.10;71.20
20825;BME280;10573;50.936;6.978;2023-01-19T11:21:41;100202.28;;;4.98;71.53
20825;BME280;10573;50.936;6.978;2023-01-19T11:24:09;100200.91;;;5.15;71.72
20825;BME280;10573;50.936;6.978;2023-01-19T11:26:46;100201.28;;;5.33;70.80
20825;BME280;10573;50.936;6.978;2023-01-19T11:31:42;100193.31;;;5.32;70.53
20825;BME280;10573;50.936;6.978;2023-01-19T11:34:32;100194.13;;;5.44;70.64
20825;BME280;10573;50.936;6.978;2023-01-19T11:37:01;100207.34;;;5.69;70.00
20825;BME280;10573;50.936;6.978;2023-01-19T11:39:45;100201.25;;;5.56;69.38
20825;BME280;10573;50.936;6.978;2023-01-19T11:42:11;100197.03;;;5.63;69.04
20825;BME280;10573;50.936;6.978;2023-01-19T11:45:01;100199.44;;;5.78;68.79
20825;BME280;10573;50.936;6.978;2023-01-19T11:47:33;100196.97;;;5.75;68.95
20825;BME280;10573;50.936;6.978;2023-01-19T11:50:05;100210.22;;;5.89;68.13
20825;BME280;10573;50.936;6.978;2023-01-19T11:52:35;100216.66;;;6.20;67.65
20825;BME280;10573;50.936;6.978;2023-01-19T11:57:37;100206.41;;;6.24;67.24
20825;BME280;10573;50.936;6.978;2023-01-19T12:00:27;100202.06;;;6.54;66.25
20825;BME280;10573;50.936;6.978;2023-01-19T12:03:05;100191.50;;;6.51;65.94
20825;BME280;10573;50.936;6.978;2023-01-19T12:05:34;100193.19;;;6.73;65.14
20825;BME280;10573;50.936;6.978;2023-01-19T12:08:04;100209.22;;;6.86;65.41
20825;BME280;10573;50.936;6.978;2023-01-19T12:10:35;100209.06;;;6.35;64.95
20825;BME280;10573;50.936;6.978;2023-01-19T12:13:02;100212.28;;;6.29;65.25
20825;BME280;10573;50.936;6.978;2023-01-19T12:15:35;100207.88;;;7.01;64.60
20825;BME280;10573;50.936;6.978;2023-01-19T12:18:04;100209.28;;;7.36;63.22
20825;BME280;10573;50.936;6.978;2023-01-19T12:20:41;100216.97;;;7.31;62.37
20825;BME280;10573;50.936;6.978;2023-01-19T12:23:36;100191.66;;;8.20;61.10
20825;BME280;10573;50.936;6.978;2023-01-19T12:28:37;100196.88;;;9.46;56.23
20825;BME280;10573;50.936;6.978;2023-01-19T12:31:04;100199.84;;;8.97;56.98
20825;BME280;10573;50.936;6.978;2023-01-19T12:33:35;100202.22;;;9.38;56.60
20825;BME280;10573;50.936;6.978;2023-01-19T12:52:08;100213.66;;;8.37;58.37
20825;BME280;10573;50.936;6.978;2023-01-19T12:54:36;100215.53;;;7.78;59.14
20825;BME280;10573;50.936;6.978;2023-01-19T12:57:07;100212.41;;;8.02;58.86
20825;BME280;10573;50.936;6.978;2023-01-19T12:59:35;100208.41;;;9.02;56.04
20825;BME280;10573;50.936;6.978;2023-01-19T13:05:15;100209.84;;;8.00;58.54
20825;BME280;10573;50.936;6.978;2023-01-19T13:13:34;100216.09;;;8.11;56.46
20825;BME280;10573;50.936;6.978;2023-01-19T13:18:53;100220.44;;;7.53;58.99
20825;BME280;10573;50.936;6.978;2023-01-19T13:23:56;100217.97;;;6.99;60.73
20825;BME280;10573;50.936;6.978;2023-01-19T13:26:25;100230.53;;;7.00;60.81
20825;BME280;10573;50.936;6.978;2023-01-19T13:31:43;100232.69;;;7.07;60.84
20825;BME280;10573;50.936;6.978;2023-01-19T13:34:13;100226.56;;;7.04;60.34
20825;BME280;10573;50.936;6.978;2023-01-19T13:36:43;100237.38;;;7.04;60.67
20825;BME280;10573;50.936;6.978;2023-01-19T13:39:36;100232.91;;;7.25;59.69
20825;BME280;10573;50.936;6.978;2023-01-19T13:42:12;100229.47;;;7.73;58.49
20825;BME280;10573;50.936;6.978;2023-01-19T13:44:43;100233.75;;;7.25;58.44
20825;BME280;10573;50.936;6.978;2023-01-19T13:47:15;100225.91;;;6.91;60.11
20825;BME280;10573;50.936;6.978;2023-01-19T13:49:45;100231.50;;;6.99;60.40
20825;BME280;10573;50.936;6.978;2023-01-19T13:52:13;100244.06;;;7.00;59.11
20825;BME280;10573;50.936;6.978;2023-01-19T13:54:50;100244.84;;;7.53;58.53
20825;BME280;10573;50.936;6.978;2023-01-19T14:05:30;100238.97;;;8.57;55.32
20825;BME280;10573;50.936;6.978;2023-01-19T14:13:32;100227.53;;;9.11;52.51
20825;BME280;10573;50.936;6.978;2023-01-19T14:16:00;100235.97;;;8.50;53.16
20825;BME280;10573;50.936;6.978;2023-01-19T14:18:30;100240.31;;;7.63;56.19
20825;BME280;10573;50.936;6.978;2023-01-19T14:21:10;100246.31;;;7.26;57.85
20825;BME280;10573;50.936;6.978;2023-01-19T14:26:39;100253.06;;;6.59;59.89
20825;BME280;10573;50.936;6.978;2023-01-19T14:34:29;100264.88;;;6.04;62.62
20825;BME280;10573;50.936;6.978;2023-01-19T14:36:55;100271.59;;;6.21;62.71
20825;BME280;10573;50.936;6.978;2023-01-19T14:39:24;100267.22;;;6.09;63.32
20825;BME280;10573;50.936;6.978;2023-01-19T14:41:51;100271.41;;;6.01;63.61